Time;durP1;ratioP1;P1;durP2;ratioP2;P2;SDS_P1;SDS_P2;PMS_P1;PMS_P2;Temp;Humidity;BMP_temperature;BMP_pressure;BME280_temperature;BME280_humidity;BME280_pressure;Samples;Min_cycle;Max_cycle;Signal;HPM_P1;HPM_P2
2021/11/22 00:01:29;;;;;;;69.97;43.20;;;7.10;99.90;;;;;;6070953;23;20026;-81
2021/11/22 00:03:56;;;;;;;77.50;44.28;;;6.90;99.90;;;;;;6095674;23;20015;-82
2021/11/22 00:06:23;;;;;;;69.50;40.40;;;6.90;99.90;;;;;;6095095;23;20105;-83
2021/11/22 00:08:51;;;;;;;68.78;40.90;;;7.10;99.90;;;;;;6099596;23;20025;-85
2021/11/22 00:11:22;;;;;;;63.50;39.85;;;7.00;99.90;;;;;;6129822;23;20022;-91
2021/11/22 00:14:05;;;;;;;59.65;37.28;;;7.00;99.90;;;;;;6112338;23;20022;-89
2021/11/22 00:16:35;;;;;;;60.75;38.45;;;6.80;99.90;;;;;;6108537;23;20026;-88
2021/11/22 00:19:03;;;;;;;58.10;36.73;;;7.00;99.90;;;;;;6082563;23;20026;-88
2021/11/22 00:21:30;;;;;;;56.47;35.03;;;6.80;99.90;;;;;;6080918;23;20097;-87
2021/11/22 00:23:58;;;;;;;59.17;35.40;;;6.70;99.90;;;;;;6104488;23;20029;-84
2021/11/22 00:26:26;;;;;;;56.38;33.47;;;6.90;99.90;;;;;;6102094;23;20078;-87
2021/11/22 00:28:53;;;;;;;51.30;32.58;;;6.90;99.90;;;;;;6101259;23;20038;-90
2021/11/22 00:31:20;;;;;;;49.25;33.03;;;6.70;99.90;;;;;;6076811;23;20024;-90
2021/11/22 00:33:48;;;;;;;55.05;32.85;;;6.60;99.90;;;;;;6100559;23;20026;-85
2021/11/22 00:36:16;;;;;;;57.15;32.38;;;6.60;99.90;;;;;;6101356;23;20414;-87
2021/11/22 00:38:44;;;;;;;49.90;31.13;;;6.40;99.90;;;;;;6100399;23;20060;-85
2021/11/22 00:41:11;;;;;;;53.47;31.88;;;6.50;99.90;;;;;;6100401;23;20022;-85
2021/11/22 00:43:38;;;;;;;50.95;31.60;;;6.50;99.90;;;;;;6076559;23;20045;-87
2021/11/22 00:46:07;;;;;;;60.42;32.42;;;6.60;99.90;;;;;;6103290;23;20050;-89
2021/11/22 00:48:37;;;;;;;52.97;31.45;;;6.60;99.90;;;;;;6129202;23;20025;-91
2021/11/22 00:51:05;;;;;;;48.17;31.98;;;6.70;99.90;;;;;;6103821;23;20021;-91
2021/11/22 00:53:33;;;;;;;50.55;31.20;;;6.80;99.90;;;;;;6104217;23;20026;-92
2021/11/22 00:56:01;;;;;;;58.53;33.00;;;6.80;99.90;;;;;;6107723;23;20019;-93
2021/11/22 00:58:29;;;;;;;49.13;31.55;;;6.70;99.90;;;;;;6142795;23;20022;-87
2021/11/22 01:00:57;;;;;;;58.88;35.20;;;6.70;99.90;;;;;;6103788;23;20388;-89
2021/11/22 01:03:29;;;;;;;63.28;38.15;;;6.30;99.90;;;;;;6105750;23;20053;-88
2021/11/22 01:05:56;;;;;;;58.80;35.47;;;6.30;99.90;;;;;;6109490;23;20037;-89
2021/11/22 01:08:23;;;;;;;57.17;35.30;;;6.60;99.90;;;;;;6106609;23;20344;-86
2021/11/22 01:10:51;;;;;;;62.60;33.22;;;6.80;99.90;;;;;;6101098;23;20490;-84
2021/11/22 01:13:19;;;;;;;62.65;35.88;;;6.70;99.90;;;;;;6100589;23;20046;-85
2021/11/22 01:15:46;;;;;;;61.20;35.88;;;6.60;99.90;;;;;;6100281;23;20464;-82
2021/11/22 01:18:14;;;;;;;60.78;35.17;;;6.70;99.90;;;;;;6126379;23;20400;-83
2021/11/22 01:20:41;;;;;;;58.78;33.15;;;6.70;99.90;;;;;;6100717;23;20042;-86
2021/11/22 01:23:13;;;;;;;62.53;37.20;;;6.70;99.90;;;;;;6129257;23;20048;-81
2021/11/22 01:25:42;;;;;;;58.47;35.30;;;6.80;99.90;;;;;;6078021;23;20029;-84
2021/11/22 01:28:10;;;;;;;58.25;36.25;;;6.70;99.90;;;;;;6075442;23;20026;-83
2021/11/22 01:30:39;;;;;;;55.30;34.72;;;6.60;99.90;;;;;;6099420;23;20041;-84
2021/11/22 01:33:06;;;;;;;55.45;31.83;;;6.50;99.90;;;;;;6077604;23;20041;-84
2021/11/22 01:35:33;;;;;;;54.25;31.35;;;6.20;99.90;;;;;;6127696;23;20014;-89
2021/11/22 01:38:01;;;;;;;54.80;33.90;;;6.00;99.90;;;;;;6125437;23;20013;-82
2021/11/22 01:40:28;;;;;;;52.67;35.22;;;5.50;99.90;;;;;;6125005;23;20359;-83
2021/11/22 01:42:56;;;;;;;63.28;34.50;;;6.00;99.90;;;;;;6098740;23;20046;-81
2021/11/22 01:45:24;;;;;;;62.30;36.55;;;6.20;99.90;;;;;;6125004;23;20025;-80
2021/11/22 01:47:53;;;;;;;63.08;38.17;;;6.40;99.90;;;;;;6098944;23;20055;-84
2021/11/22 01:50:21;;;;;;;64.10;38.60;;;6.50;99.90;;;;;;6098995;23;20446;-83
2021/11/22 01:52:50;;;;;;;58.05;36.60;;;6.60;99.90;;;;;;6099072;23;20025;-82
2021/11/22 01:55:19;;;;;;;57.92;36.22;;;6.50;99.90;;;;;;6099717;23;20456;-86
2021/11/22 01:57:48;;;;;;;56.72;35.38;;;6.70;99.90;;;;;;6099836;23;20376;-85
2021/11/22 02:00:23;;;;;;;58.20;34.38;;;6.90;99.90;;;;;;6101487;23;20045;-81
2021/11/22 02:02:51;;;;;;;56.15;33.30;;;7.00;99.90;;;;;;6126937;23;20349;-87
2021/11/22 02:05:18;;;;;;;57.53;33.35;;;6.90;99.90;;;;;;6077616;23;20022;-87
2021/11/22 02:07:46;;;;;;;56.67;35.08;;;6.60;99.90;;;;;;6100173;23;20340;-87
2021/11/22 02:10:14;;;;;;;59.47;35.90;;;6.90;99.90;;;;;;6100991;23;20028;-85
2021/11/22 02:12:42;;;;;;;60.08;34.15;;;7.10;99.90;;;;;;6101568;23;20018;-87
2021/11/22 02:15:12;;;;;;;57.13;34.53;;;7.10;99.90;;;;;;6129016;23;20089;-88
2021/11/22 02:17:43;;;;;;;54.85;34.08;;;7.00;99.90;;;;;;6077224;23;20068;-87
2021/11/22 02:20:13;;;;;;;58.80;34.95;;;6.90;99.90;;;;;;6127068;23;20033;-88
2021/11/22 02:22:44;;;;;;;54.30;35.08;;;7.10;99.90;;;;;;6126696;23;20018;-87
2021/11/22 02:25:14;;;;;;;60.28;34.83;;;7.10;99.90;;;;;;6127471;23;20052;-87
2021/11/22 02:27:43;;;;;;;56.65;34.35;;;6.90;99.90;;;;;;6126943;23;20014;-83
2021/11/22 02:30:12;;;;;;;55.92;35.70;;;7.00;99.90;;;;;;6099528;23;20108;-80
2021/11/22 02:32:41;;;;;;;52.08;34.45;;;7.10;99.90;;;;;;6098882;23;20448;-83
2021/11/22 02:35:13;;;;;;;57.85;35.50;;;7.00;99.90;;;;;;6125032;23;20053;-84
2021/11/22 02:37:40;;;;;;;58.00;34.15;;;7.10;99.90;;;;;;6124635;23;20407;-83
2021/11/22 02:40:09;;;;;;;55.08;35.15;;;7.10;99.90;;;;;;6099892;23;20100;-84
2021/11/22 02:42:40;;;;;;;53.33;35.58;;;7.20;99.90;;;;;;6101185;23;20022;-88
2021/11/22 02:45:14;;;;;;;56.67;36.45;;;7.10;99.90;;;;;;6077085;23;20021;-84
2021/11/22 02:47:42;;;;;;;58.42;35.38;;;7.00;99.90;;;;;;6101438;23;20022;-91
2021/11/22 02:50:11;;;;;;;57.30;33.45;;;7.00;99.90;;;;;;6102777;23;20337;-87
2021/11/22 02:52:40;;;;;;;55.97;34.22;;;7.00;99.90;;;;;;6102298;23;20022;-88
2021/11/22 02:55:30;;;;;;;59.60;34.50;;;7.00;99.90;;;;;;6130880;23;20049;-85
2021/11/22 02:58:00;;;;;;;58.78;34.38;;;7.10;99.90;;;;;;6068541;23;20026;-78
2021/11/22 03:00:29;;;;;;;65.30;36.13;;;6.90;99.90;;;;;;6126690;23;20085;-84
2021/11/22 03:02:56;;;;;;;61.40;34.35;;;6.70;99.90;;;;;;6100734;23;20024;-82
2021/11/22 03:05:25;;;;;;;59.33;34.55;;;6.50;99.90;;;;;;6100907;23;20064;-82
2021/11/22 03:07:54;;;;;;;54.28;33.22;;;6.50;99.90;;;;;;6100596;23;20040;-82
2021/11/22 03:10:25;;;;;;;59.75;36.05;;;6.50;99.90;;;;;;6126799;23;20424;-83
2021/11/22 03:12:53;;;;;;;67.22;36.83;;;6.50;99.90;;;;;;6127859;23;20084;-84
2021/11/22 03:15:22;;;;;;;56.67;34.22;;;6.50;99.90;;;;;;6101912;23;20391;-84
2021/11/22 03:17:49;;;;;;;59.70;33.78;;;6.40;99.90;;;;;;6100937;23;20388;-84
2021/11/22 03:20:20;;;;;;;55.67;35.75;;;6.40;99.90;;;;;;6126325;23;20024;-83
2021/11/22 03:22:48;;;;;;;51.05;32.30;;;6.50;99.90;;;;;;6100646;23;20396;-78
2021/11/22 03:25:17;;;;;;;50.50;31.55;;;6.30;99.90;;;;;;6126798;23;20065;-80
2021/11/22 03:27:46;;;;;;;56.67;33.42;;;6.40;99.90;;;;;;6101097;23;20022;-83
2021/11/22 03:30:14;;;;;;;52.05;31.20;;;6.20;99.90;;;;;;6126104;23;20097;-83
2021/11/22 03:32:43;;;;;;;45.88;29.73;;;6.50;99.90;;;;;;6099969;23;20089;-84
2021/11/22 03:35:11;;;;;;;52.47;30.33;;;6.70;99.90;;;;;;6101025;23;20025;-85
2021/11/22 03:37:39;;;;;;;43.17;29.45;;;6.90;99.90;;;;;;6099673;23;20028;-81
2021/11/22 03:40:07;;;;;;;46.20;28.13;;;6.90;99.90;;;;;;6100552;23;20026;-84
2021/11/22 03:43:27;;;;;;;46.22;28.13;;;7.10;99.90;;;;;;6076154;23;20515;-82
2021/11/22 03:45:25;;;;;;;45.38;27.88;;;7.10;99.90;;;;;;6118289;23;20017;-81
2021/11/22 03:47:53;;;;;;;41.33;26.70;;;7.10;99.90;;;;;;6126023;23;20117;-83
2021/11/22 03:50:20;;;;;;;45.17;27.15;;;7.10;99.90;;;;;;6101093;23;20080;-88
2021/11/22 03:52:50;;;;;;;43.40;27.35;;;7.10;99.90;;;;;;6102282;23;20018;-88
2021/11/22 03:55:17;;;;;;;37.92;25.02;;;7.00;99.90;;;;;;6078037;23;20348;-86
2021/11/22 03:57:46;;;;;;;39.47;26.23;;;7.00;99.90;;;;;;6077959;23;20370;-86
2021/11/22 04:00:15;;;;;;;35.63;24.02;;;7.00;99.90;;;;;;6101547;23;20024;-85
2021/11/22 04:02:43;;;;;;;36.58;24.77;;;7.10;99.90;;;;;;6101384;23;20032;-88
2021/11/22 04:05:10;;;;;;;37.28;24.60;;;6.80;99.90;;;;;;6102139;23;20100;-85
2021/11/22 04:07:39;;;;;;;38.05;24.33;;;6.90;99.90;;;;;;6126780;23;20021;-88
2021/11/22 04:10:06;;;;;;;36.53;23.70;;;7.00;99.90;;;;;;6077880;23;20348;-87
2021/11/22 04:12:34;;;;;;;38.22;23.98;;;6.90;99.90;;;;;;6126076;23;20018;-89
2021/11/22 04:15:01;;;;;;;34.85;23.05;;;6.90;99.90;;;;;;6127506;23;20021;-84
2021/11/22 04:17:29;;;;;;;39.65;24.88;;;6.70;99.90;;;;;;6125333;23;20022;-80
2021/11/22 04:19:56;;;;;;;37.05;22.50;;;6.70;99.90;;;;;;6099725;23;20013;-84
2021/11/22 04:22:23;;;;;;;36.35;23.38;;;6.80;99.90;;;;;;6099715;23;20050;-84
2021/11/22 04:24:50;;;;;;;33.20;24.00;;;6.90;99.90;;;;;;6126042;23;20020;-85
2021/11/22 04:27:18;;;;;;;41.00;25.02;;;6.90;99.90;;;;;;6100080;23;20523;-87
2021/11/22 04:29:46;;;;;;;34.35;24.80;;;6.90;99.90;;;;;;6100205;23;20025;-84
2021/11/22 04:32:13;;;;;;;40.15;25.45;;;6.80;99.90;;;;;;6099785;23;20098;-82
2021/11/22 04:34:40;;;;;;;38.28;24.10;;;6.70;99.90;;;;;;6099877;23;20486;-85
2021/11/22 04:37:07;;;;;;;39.88;25.35;;;6.60;99.90;;;;;;6075545;23;20401;-81
2021/11/22 04:39:35;;;;;;;42.60;25.83;;;6.30;99.90;;;;;;6125666;23;20093;-83
2021/11/22 04:42:03;;;;;;;38.70;25.63;;;6.30;99.90;;;;;;6125465;23;20085;-83
2021/11/22 04:44:30;;;;;;;41.35;24.58;;;6.50;99.90;;;;;;6076424;23;20101;-83
2021/11/22 04:46:57;;;;;;;37.90;24.30;;;6.50;99.90;;;;;;6125256;23;20024;-82
2021/11/22 04:49:25;;;;;;;38.95;23.65;;;6.60;99.90;;;;;;6125496;23;20055;-83
2021/11/22 04:51:52;;;;;;;38.53;24.98;;;6.70;99.90;;;;;;6125504;23;20088;-83
2021/11/22 04:54:19;;;;;;;42.33;25.85;;;6.60;99.90;;;;;;6126505;23;20391;-80
2021/11/22 04:56:47;;;;;;;39.28;24.77;;;6.70;99.90;;;;;;6100318;23;20028;-87
2021/11/22 04:59:19;;;;;;;46.10;25.95;;;6.80;99.90;;;;;;6125606;23;20022;-84
2021/11/22 05:01:46;;;;;;;44.95;25.40;;;7.00;99.90;;;;;;6099896;23;20344;-84
2021/11/22 05:04:14;;;;;;;42.97;24.38;;;7.10;99.90;;;;;;6100362;23;20376;-87
2021/11/22 05:06:41;;;;;;;38.97;24.25;;;7.20;99.90;;;;;;6126083;23;20076;-83
2021/11/22 05:09:08;;;;;;;38.58;24.20;;;7.20;99.90;;;;;;6125654;23;20025;-85
2021/11/22 05:11:35;;;;;;;39.78;25.27;;;7.20;99.90;;;;;;6125472;23;20036;-81
2021/11/22 05:14:03;;;;;;;42.13;25.65;;;7.20;99.90;;;;;;6125967;23;20608;-85
2021/11/22 05:16:30;;;;;;;40.60;24.98;;;7.10;99.90;;;;;;6099197;23;20482;-82
2021/11/22 05:18:57;;;;;;;42.70;26.73;;;7.20;99.90;;;;;;6075775;23;20022;-83
2021/11/22 05:21:25;;;;;;;40.95;26.20;;;7.10;99.90;;;;;;6099608;23;20020;-82
2021/11/22 05:23:54;;;;;;;50.47;27.65;;;6.90;99.90;;;;;;6125410;23;20073;-83
2021/11/22 05:26:22;;;;;;;43.85;27.35;;;6.90;99.90;;;;;;6125372;23;20084;-81
2021/11/22 05:28:49;;;;;;;47.42;28.02;;;7.20;99.90;;;;;;6098995;23;20097;-80
2021/11/22 05:31:17;;;;;;;47.72;27.60;;;7.30;99.90;;;;;;6098325;23;20028;-80
2021/11/22 05:33:44;;;;;;;41.63;27.25;;;7.40;99.90;;;;;;6098848;23;20014;-81
2021/11/22 05:36:11;;;;;;;38.47;25.95;;;7.50;99.90;;;;;;6124518;23;20337;-81
2021/11/22 05:38:39;;;;;;;42.95;26.45;;;7.50;99.90;;;;;;6124662;23;20024;-79
2021/11/22 05:41:06;;;;;;;44.33;24.60;;;7.50;99.90;;;;;;6099811;23;20041;-83
2021/11/22 05:43:35;;;;;;;39.72;24.95;;;7.50;99.90;;;;;;6099526;23;20021;-81
2021/11/22 05:46:05;;;;;;;42.55;28.08;;;7.60;99.90;;;;;;6074839;23;20068;-88
2021/11/22 05:48:33;;;;;;;141.15;73.93;;;7.70;99.90;;;;;;6124732;23;20025;-80
2021/11/22 05:51:01;;;;;;;77.68;47.35;;;7.70;99.90;;;;;;6099177;23;20347;-82
2021/11/22 05:53:33;;;;;;;83.53;46.83;;;7.40;99.90;;;;;;6074763;23;20443;-83
2021/11/22 05:56:03;;;;;;;49.83;31.58;;;7.50;99.90;;;;;;6124633;23;20065;-85
2021/11/22 05:58:31;;;;;;;49.92;33.35;;;6.90;99.90;;;;;;6098073;23;20022;-85
2021/11/22 06:01:00;;;;;;;108.35;58.17;;;6.70;99.90;;;;;;6099290;23;20021;-83
2021/11/22 06:03:28;;;;;;;49.08;31.98;;;7.10;99.90;;;;;;6123932;23;20050;-81
2021/11/22 06:05:57;;;;;;;43.50;27.08;;;7.10;99.90;;;;;;6124694;23;20018;-86
2021/11/22 06:08:26;;;;;;;41.08;26.70;;;7.20;99.90;;;;;;6124413;23;20040;-80
2021/11/22 06:10:53;;;;;;;41.72;26.73;;;7.40;99.90;;;;;;6124608;23;20347;-83
2021/11/22 06:13:22;;;;;;;43.38;27.60;;;7.40;99.90;;;;;;6124273;23;20092;-78
2021/11/22 06:15:50;;;;;;;47.13;29.55;;;6.80;99.90;;;;;;6125174;23;20306;-84
2021/11/22 06:18:18;;;;;;;43.47;27.30;;;6.90;99.90;;;;;;6098057;23;20416;-83
2021/11/22 06:20:45;;;;;;;45.83;28.30;;;7.30;99.90;;;;;;6098653;23;20093;-83
2021/11/22 06:23:13;;;;;;;48.40;27.40;;;7.30;99.90;;;;;;6074716;23;20101;-82
2021/11/22 06:25:41;;;;;;;46.65;28.48;;;7.30;99.90;;;;;;6124429;23;20071;-84
2021/11/22 06:28:08;;;;;;;49.17;30.08;;;7.40;99.90;;;;;;6123626;23;20163;-89
2021/11/22 06:30:35;;;;;;;49.22;28.52;;;7.50;99.90;;;;;;6099938;23;20036;-84
2021/11/22 06:33:03;;;;;;;49.95;29.88;;;7.50;99.90;;;;;;6125809;23;20037;-82
2021/11/22 06:35:34;;;;;;;43.22;29.83;;;7.70;99.90;;;;;;6126501;23;20089;-82
2021/11/22 06:38:01;;;;;;;50.53;28.60;;;7.80;99.90;;;;;;6094563;23;20024;-82
2021/11/22 06:40:29;;;;;;;46.85;28.77;;;7.70;99.90;;;;;;6100100;23;20088;-86
2021/11/22 06:42:57;;;;;;;47.75;29.10;;;7.70;99.90;;;;;;6077617;23;20105;-89
2021/11/22 06:45:25;;;;;;;42.25;28.65;;;7.70;99.90;;;;;;6126583;23;20085;-83
2021/11/22 06:47:52;;;;;;;46.10;29.42;;;7.70;99.90;;;;;;6094435;23;20030;-82
2021/11/22 06:50:20;;;;;;;50.25;28.90;;;7.70;99.90;;;;;;6125296;23;20028;-86
2021/11/22 06:52:48;;;;;;;45.20;27.73;;;7.70;99.90;;;;;;6126397;23;20041;-89
2021/11/22 06:55:16;;;;;;;45.17;27.38;;;7.80;99.90;;;;;;6125474;23;20468;-83
2021/11/22 06:57:44;;;;;;;43.90;29.25;;;7.80;99.90;;;;;;6126900;23;20396;-80
2021/11/22 07:00:13;;;;;;;47.97;29.67;;;7.80;99.90;;;;;;6076523;23;20097;-78
2021/11/22 07:02:41;;;;;;;46.58;29.48;;;7.90;99.90;;;;;;6099778;23;20038;-87
2021/11/22 07:05:10;;;;;;;50.33;30.75;;;7.90;99.90;;;;;;6099536;23;20420;-81
2021/11/22 07:07:38;;;;;;;45.67;28.65;;;7.80;99.90;;;;;;6125843;23;20085;-79
2021/11/22 07:10:06;;;;;;;49.05;28.48;;;7.70;99.90;;;;;;6099177;23;20045;-78
2021/11/22 07:12:34;;;;;;;49.60;29.90;;;7.60;99.90;;;;;;6099673;23;20021;-80
2021/11/22 07:15:03;;;;;;;46.47;30.63;;;7.50;99.90;;;;;;6100456;23;20028;-86
2021/11/22 07:17:30;;;;;;;49.47;29.58;;;7.60;99.90;;;;;;6100301;23;20040;-84
2021/11/22 07:19:58;;;;;;;51.30;31.48;;;7.60;99.90;;;;;;6123793;23;20054;-78
2021/11/22 07:22:26;;;;;;;50.70;32.10;;;7.50;99.90;;;;;;6097880;23;20536;-86
2021/11/22 07:24:53;;;;;;;54.42;32.78;;;7.60;99.90;;;;;;6098206;23;20036;-78
2021/11/22 07:27:25;;;;;;;55.50;32.40;;;7.70;99.90;;;;;;6123808;23;20405;-79
2021/11/22 07:29:55;;;;;;;50.25;32.28;;;7.80;99.90;;;;;;6097537;23;20355;-83
2021/11/22 07:32:26;;;;;;;;;;;7.90;99.90;;;;;;6097128;23;20026;-79
2021/11/22 07:34:55;;;;;;;55.80;34.25;;;8.00;99.90;;;;;;6098495;23;19917;-78
2021/11/22 07:37:23;;;;;;;57.08;34.53;;;7.90;99.90;;;;;;6125161;23;20096;-79
2021/11/22 07:39:50;;;;;;;51.97;35.53;;;7.80;99.90;;;;;;6098763;23;20030;-79
2021/11/22 07:42:18;;;;;;;57.05;34.50;;;7.80;99.90;;;;;;6125027;23;20041;-82
2021/11/22 07:44:47;;;;;;;57.22;35.45;;;7.90;99.90;;;;;;6099240;23;20093;-82
2021/11/22 07:47:15;;;;;;;62.20;35.17;;;8.00;99.90;;;;;;6125449;23;20041;-83
2021/11/22 07:49:42;;;;;;;58.83;34.15;;;8.00;99.90;;;;;;6099426;23;20018;-80
2021/11/22 07:52:10;;;;;;;60.72;34.60;;;8.00;99.90;;;;;;6099650;23;20045;-88
2021/11/22 07:54:37;;;;;;;51.97;31.95;;;8.00;99.90;;;;;;6126464;23;20038;-85
2021/11/22 07:57:05;;;;;;;50.42;29.35;;;8.10;99.90;;;;;;6125994;23;20468;-86
2021/11/22 07:59:34;;;;;;;49.75;27.58;;;8.00;99.90;;;;;;6099223;23;20456;-80
2021/11/22 08:02:02;;;;;;;39.67;26.85;;;8.00;99.90;;;;;;6125615;23;20028;-86
2021/11/22 08:04:30;;;;;;;45.85;27.42;;;8.10;99.90;;;;;;6125739;23;20042;-83
2021/11/22 08:07:01;;;;;;;48.88;27.30;;;8.10;99.90;;;;;;6099484;23;20114;-85
2021/11/22 08:09:34;;;;;;;45.53;26.15;;;8.20;99.90;;;;;;6124612;23;20025;-81
2021/11/22 08:14:47;;;;;;;48.55;28.10;;;8.20;99.90;;;;;;6099660;23;20028;-86
2021/11/22 08:17:15;;;;;;;46.53;29.50;;;8.40;99.90;;;;;;6098590;23;20363;-83
2021/11/22 08:19:42;;;;;;;51.97;30.35;;;8.40;99.90;;;;;;6124908;23;20021;-83
2021/11/22 08:22:10;;;;;;;52.55;31.55;;;8.30;99.90;;;;;;6124525;23;20050;-86
2021/11/22 08:24:37;;;;;;;50.25;26.85;;;8.40;99.90;;;;;;6124640;23;20028;-81
2021/11/22 08:27:05;;;;;;;31.67;20.90;;;8.40;99.90;;;;;;6099641;23;20050;-86
2021/11/22 08:29:34;;;;;;;28.27;17.15;;;8.40;99.90;;;;;;6076446;23;20069;-83
2021/11/22 08:32:04;;;;;;;25.40;16.23;;;8.20;99.90;;;;;;6124618;23;20093;-80
2021/11/22 08:34:32;;;;;;;25.52;17.17;;;8.30;99.90;;;;;;6074451;23;20341;-82
2021/11/22 08:36:59;;;;;;;25.50;17.02;;;8.10;99.90;;;;;;6124247;23;20022;-81
2021/11/22 08:39:27;;;;;;;26.95;17.73;;;7.80;99.90;;;;;;6098933;23;20093;-81
2021/11/22 08:41:54;;;;;;;27.23;16.83;;;7.80;99.90;;;;;;6124392;23;20022;-81
2021/11/22 08:44:22;;;;;;;27.17;16.92;;;7.90;99.90;;;;;;6098192;23;20021;-81
2021/11/22 08:46:50;;;;;;;25.73;16.77;;;7.70;99.90;;;;;;6121846;23;20088;-81
2021/11/22 08:49:18;;;;;;;27.90;17.05;;;7.90;99.90;;;;;;6096682;23;20046;-81
2021/11/22 08:51:45;;;;;;;30.08;16.85;;;8.00;99.90;;;;;;6121953;23;20018;-81
2021/11/22 08:54:13;;;;;;;27.15;17.48;;;8.00;99.90;;;;;;6096291;23;20372;-82
2021/11/22 08:56:41;;;;;;;32.78;19.02;;;8.20;99.90;;;;;;6095996;23;20108;-83
2021/11/22 08:59:08;;;;;;;30.35;18.55;;;8.30;99.90;;;;;;6073217;23;20029;-84
2021/11/22 09:01:37;;;;;;;22.80;15.82;;;8.40;99.90;;;;;;6097770;23;20018;-82
2021/11/22 09:04:05;;;;;;;30.52;19.73;;;8.60;99.90;;;;;;6098814;23;20017;-84
2021/11/22 09:06:34;;;;;;;30.02;18.25;;;8.60;99.90;;;;;;6097794;23;20022;-81
2021/11/22 09:09:05;;;;;;;27.02;18.10;;;8.50;99.90;;;;;;6123930;23;20100;-82
2021/11/22 09:11:34;;;;;;;27.23;17.42;;;8.60;99.90;;;;;;6098527;23;20084;-82
2021/11/22 09:14:01;;;;;;;26.85;18.80;;;8.70;99.90;;;;;;6098871;23;20105;-81
2021/11/22 09:16:29;;;;;;;32.13;18.35;;;8.80;99.90;;;;;;6074339;23;20108;-81
2021/11/22 09:18:58;;;;;;;32.80;19.30;;;8.90;99.90;;;;;;6123789;23;20018;-83
2021/11/22 09:21:27;;;;;;;30.50;19.00;;;8.90;99.90;;;;;;6073996;23;20100;-81
2021/11/22 09:23:55;;;;;;;30.63;18.75;;;9.10;99.90;;;;;;6123774;23;20332;-81
2021/11/22 09:26:23;;;;;;;35.90;20.25;;;9.10;99.90;;;;;;6074664;23;20351;-82
2021/11/22 09:28:50;;;;;;;35.60;22.80;;;9.30;99.90;;;;;;6097461;23;20396;-83
2021/11/22 09:31:18;;;;;;;42.67;25.95;;;9.40;99.90;;;;;;6097137;23;20431;-82
2021/11/22 09:33:46;;;;;;;47.58;28.48;;;9.40;99.90;;;;;;6097120;23;20336;-80
2021/11/22 09:36:14;;;;;;;46.08;28.65;;;9.30;99.90;;;;;;6074153;23;20328;-81
2021/11/22 09:38:42;;;;;;;49.03;30.85;;;9.50;99.90;;;;;;6098238;23;20018;-81
2021/11/22 09:41:09;;;;;;;48.70;29.95;;;9.70;99.90;;;;;;6097432;23;20053;-80
2021/11/22 09:43:37;;;;;;;45.50;31.67;;;9.90;99.90;;;;;;6098104;23;20050;-83
2021/11/22 09:46:04;;;;;;;60.55;36.08;;;9.80;99.90;;;;;;6097848;23;20045;-82
2021/11/22 09:48:33;;;;;;;51.35;32.00;;;9.60;99.90;;;;;;6096988;23;20502;-80
2021/11/22 09:51:04;;;;;;;53.38;36.00;;;9.60;99.90;;;;;;6071277;23;20026;-81
2021/11/22 09:53:33;;;;;;;;;;;9.80;99.90;;;;;;6096390;23;20021;-80
2021/11/22 09:56:01;;;;;;;69.65;39.15;;;9.60;99.90;;;;;;6072618;23;19927;-81
2021/11/22 09:58:28;;;;;;;67.00;40.08;;;9.50;99.90;;;;;;6122488;23;20377;-81
2021/11/22 10:01:03;;;;;;;66.03;42.35;;;9.30;99.90;;;;;;6125163;23;20096;-82
2021/11/22 10:03:31;;;;;;;66.50;40.95;;;9.20;99.90;;;;;;6074370;23;20104;-82
2021/11/22 10:06:03;;;;;;;69.78;42.90;;;9.30;99.90;;;;;;6091308;23;20102;-86
2021/11/22 10:08:40;;;;;;;68.50;43.78;;;9.40;99.90;;;;;;6093736;23;20465;-84
2021/11/22 10:11:11;;;;;;;63.90;37.97;;;9.50;99.90;;;;;;6069165;23;20026;-84
2021/11/22 10:13:39;;;;;;;61.42;38.33;;;9.50;99.90;;;;;;6070407;23;20101;-84
2021/11/22 10:16:15;;;;;;;68.43;39.00;;;9.50;99.90;;;;;;6095601;23;20421;-88
2021/11/22 10:18:48;;;;;;;59.85;36.88;;;9.40;99.90;;;;;;6095035;23;20050;-89
2021/11/22 10:21:34;;;;;;;58.97;36.35;;;9.60;99.90;;;;;;6096168;23;20019;-83
2021/11/22 10:24:12;;;;;;;56.95;34.70;;;9.70;99.90;;;;;;6094257;23;20073;-83
2021/11/22 10:26:45;;;;;;;58.38;34.28;;;9.80;99.90;;;;;;6094437;23;20054;-86
2021/11/22 10:29:28;;;;;;;59.03;33.90;;;9.80;99.90;;;;;;6096042;23;20029;-90
2021/11/22 10:32:02;;;;;;;51.55;33.38;;;9.90;99.90;;;;;;6099999;23;20027;-89
2021/11/22 10:34:35;;;;;;;52.90;33.17;;;9.90;99.90;;;;;;6097698;23;20018;-90
2021/11/22 10:37:06;;;;;;;53.03;32.38;;;9.70;99.90;;;;;;6094494;23;20125;-89
2021/11/22 10:39:35;;;;;;;55.80;32.75;;;9.70;99.90;;;;;;6072824;23;20045;-89
2021/11/22 10:42:22;;;;;;;48.92;33.10;;;9.70;99.90;;;;;;6095137;23;20034;-88
2021/11/22 10:44:55;;;;;;;55.10;34.55;;;9.70;99.90;;;;;;6094057;23;20354;-84
2021/11/22 10:47:23;;;;;;;61.05;36.70;;;9.80;99.90;;;;;;6068891;23;20030;-83
2021/11/22 10:49:53;;;;;;;53.55;35.38;;;9.60;99.90;;;;;;6093597;23;20015;-86
2021/11/22 10:52:37;;;;;;;;;;;9.50;99.90;;;;;;6094232;23;20077;-85
2021/11/22 10:55:09;;;;;;;53.35;32.88;;;9.40;99.90;;;;;;6094931;23;20347;-86
2021/11/22 10:57:38;;;;;;;62.38;33.50;;;9.50;99.90;;;;;;6092970;23;20023;-88
2021/11/22 11:00:17;;;;;;;52.58;33.20;;;9.50;99.90;;;;;;6094647;23;20022;-86
2021/11/22 11:02:45;;;;;;;53.45;32.70;;;9.60;99.90;;;;;;6093292;23;20041;-84
2021/11/22 11:05:26;;;;;;;59.97;35.08;;;9.60;99.90;;;;;;6095726;23;20018;-86
2021/11/22 11:08:05;;;;;;;51.47;34.42;;;9.50;99.90;;;;;;6113247;23;20014;-87
2021/11/22 11:10:33;;;;;;;52.92;35.00;;;9.50;99.90;;;;;;6128929;23;20045;-91
2021/11/22 11:13:05;;;;;;;51.30;34.35;;;9.60;99.90;;;;;;6104059;23;20417;-82
2021/11/22 11:19:15;;;;;;;61.95;34.47;;;9.80;99.90;;;;;;6101223;23;20030;-85
2021/11/22 11:21:49;;;;;;;63.00;36.33;;;9.90;99.90;;;;;;6076306;23;20025;-81
2021/11/22 11:24:18;;;;;;;63.33;38.00;;;9.80;99.90;;;;;;6100543;23;20018;-81
2021/11/22 11:26:47;;;;;;;55.28;37.67;;;9.60;99.90;;;;;;6099442;23;20329;-79
2021/11/22 11:29:16;;;;;;;70.60;39.67;;;9.60;99.90;;;;;;6125472;23;20033;-85
2021/11/22 11:31:43;;;;;;;62.85;38.95;;;9.60;99.90;;;;;;6099634;23;20021;-80
2021/11/22 11:34:13;;;;;;;65.18;37.50;;;9.80;99.90;;;;;;6095914;23;20102;-82
2021/11/22 11:37:02;;;;;;;57.38;37.67;;;9.80;99.90;;;;;;6096743;23;20030;-85
2021/11/22 11:39:49;;;;;;;60.78;38.03;;;9.70;99.90;;;;;;6098443;23;20025;-81
2021/11/22 11:42:46;;;;;;;65.00;38.22;;;9.80;99.90;;;;;;6098073;23;20101;-80
2021/11/22 11:45:35;;;;;;;61.53;38.20;;;9.90;99.90;;;;;;6075872;23;20026;-84
2021/11/22 11:48:06;;;;;;;57.15;38.00;;;10.00;99.90;;;;;;6075598;23;20022;-82
2021/11/22 11:50:38;;;;;;;61.17;39.40;;;10.00;99.90;;;;;;6125324;23;20096;-82
2021/11/22 11:53:21;;;;;;;66.10;40.13;;;9.90;99.90;;;;;;6078924;23;20354;-84
2021/11/22 11:56:08;;;;;;;62.72;36.90;;;10.00;99.90;;;;;;6078147;23;20400;-88
2021/11/22 11:58:41;;;;;;;62.80;38.67;;;9.90;99.90;;;;;;6078383;23;20029;-86
2021/11/22 12:01:17;;;;;;;59.85;39.33;;;9.70;99.90;;;;;;6103547;23;20025;-87
2021/11/22 12:04:04;;;;;;;60.28;39.67;;;9.60;99.90;;;;;;6128015;23;20018;-87
2021/11/22 12:06:52;;;;;;;60.03;38.78;;;9.80;99.90;;;;;;6126605;23;20022;-85
2021/11/22 12:09:31;;;;;;;62.65;39.03;;;9.90;99.90;;;;;;6097856;23;20318;-86
2021/11/22 12:12:31;;;;;;;65.05;38.70;;;10.00;99.90;;;;;;6100855;23;20028;-87
2021/11/22 12:15:03;;;;;;;61.88;36.72;;;10.10;99.90;;;;;;6071180;23;20511;-87
2021/11/22 12:17:45;;;;;;;64.07;38.17;;;10.10;99.90;;;;;;6082542;23;20026;-89
2021/11/22 12:20:18;;;;;;;61.92;39.03;;;10.10;99.90;;;;;;6102142;23;20020;-88
2021/11/22 12:22:50;;;;;;;61.90;37.20;;;10.10;99.90;;;;;;6126800;23;20041;-86
2021/11/22 12:25:37;;;;;;;70.80;39.88;;;10.00;99.90;;;;;;6078165;23;20080;-86
2021/11/22 12:28:10;;;;;;;56.40;38.17;;;10.00;99.90;;;;;;6126349;23;20119;-89
2021/11/22 12:30:44;;;;;;;61.38;38.28;;;10.00;99.90;;;;;;6125752;23;20045;-88
2021/11/22 12:33:20;;;;;;;56.55;38.13;;;10.00;99.90;;;;;;6125586;23;20037;-82
2021/11/22 12:35:55;;;;;;;59.72;39.95;;;10.10;99.90;;;;;;6099303;23;20057;-82
2021/11/22 12:38:25;;;;;;;57.72;39.45;;;10.00;99.90;;;;;;6075290;23;20097;-86
2021/11/22 12:41:11;;;;;;;63.15;38.33;;;10.00;99.90;;;;;;6125926;23;20167;-86
2021/11/22 12:43:43;;;;;;;62.85;39.25;;;10.00;99.90;;;;;;6124360;23;20049;-80
2021/11/22 12:46:14;;;;;;;58.40;38.78;;;10.20;99.90;;;;;;6124377;23;20047;-79
2021/11/22 12:48:47;;;;;;;61.65;39.38;;;10.20;99.90;;;;;;6123800;23;20027;-79
2021/11/22 12:51:17;;;;;;;61.10;39.67;;;10.20;99.90;;;;;;6123614;23;20022;-80
2021/11/22 12:54:01;;;;;;;58.83;38.70;;;10.10;99.90;;;;;;6097986;23;20025;-80
2021/11/22 12:56:37;;;;;;;62.03;38.58;;;10.30;99.90;;;;;;6074682;23;20049;-82
2021/11/22 12:59:16;;;;;;;64.80;41.50;;;10.40;99.90;;;;;;6099719;23;20022;-87